createdAt,value
2018-01-11T00:00:48.234Z,11.85
2018-01-11T00:03:15.812Z,12.13
2018-01-11T00:05:43.354Z,12.60
2018-01-11T00:08:11.856Z,13.15
2018-01-11T00:10:39.404Z,13.55
2018-01-11T00:13:06.952Z,12.30
2018-01-11T00:15:34.532Z,12.68
2018-01-11T00:18:02.086Z,11.88
2018-01-11T00:20:29.655Z,12.37
2018-01-11T00:22:57.205Z,11.95
2018-01-11T00:25:24.784Z,11.93
2018-01-11T00:27:52.328Z,12.15
2018-01-11T00:30:19.919Z,12.10
2018-01-11T00:32:47.514Z,13.93
2018-01-11T00:35:15.824Z,12.30
2018-01-11T00:37:43.408Z,11.38
2018-01-11T00:40:11.040Z,13.18
2018-01-11T00:42:38.578Z,11.85
2018-01-11T00:45:06.920Z,12.15
2018-01-11T00:47:34.483Z,12.75
2018-01-11T00:50:02.831Z,12.05
2018-01-11T00:52:30.371Z,11.48
2018-01-11T00:54:57.949Z,12.15
2018-01-11T00:57:25.522Z,13.43
2018-01-11T00:59:53.061Z,12.23
2018-01-11T01:02:20.636Z,13.57
2018-01-11T01:04:48.180Z,13.90
2018-01-11T01:07:15.754Z,12.20
2018-01-11T01:09:43.292Z,15.40
2018-01-11T01:12:10.995Z,15.23
2018-01-11T01:14:38.541Z,15.13
2018-01-11T01:17:06.080Z,12.57
2018-01-11T01:19:33.656Z,11.48
2018-01-11T01:22:01.237Z,11.85
2018-01-11T01:24:28.806Z,11.40
2018-01-11T01:26:56.351Z,11.60
2018-01-11T01:29:23.932Z,11.88
2018-01-11T01:31:51.472Z,10.68
2018-01-11T01:34:19.047Z,11.12
2018-01-11T01:36:48.100Z,11.45
2018-01-11T01:39:15.671Z,12.68
2018-01-11T01:41:43.220Z,13.88
2018-01-11T01:44:10.803Z,14.20
2018-01-11T01:46:38.348Z,12.30
2018-01-11T01:49:05.892Z,11.93
2018-01-11T01:51:33.471Z,13.40
2018-01-11T01:54:01.061Z,11.85
2018-01-11T01:56:28.608Z,11.38
2018-01-11T01:58:56.152Z,11.48
2018-01-11T02:01:23.820Z,13.30
2018-01-11T02:03:51.364Z,12.77
2018-01-11T02:06:18.902Z,11.02
2018-01-11T02:08:46.484Z,11.50
2018-01-11T02:11:14.066Z,12.77
2018-01-11T02:13:41.607Z,14.60
2018-01-11T02:16:09.192Z,11.55
2018-01-11T02:18:36.730Z,12.02
2018-01-11T02:21:04.275Z,12.15
2018-01-11T02:23:31.856Z,12.07
2018-01-11T02:25:59.440Z,14.02
2018-01-11T02:28:26.983Z,13.45
2018-01-11T02:30:54.524Z,12.07
2018-01-11T02:33:22.108Z,12.57
2018-01-11T02:35:49.683Z,11.68
2018-01-11T02:38:17.225Z,12.73
2018-01-11T02:40:44.816Z,12.32
2018-01-11T02:43:13.129Z,11.95
2018-01-11T02:45:40.711Z,12.95
2018-01-11T02:48:08.244Z,13.73
2018-01-11T02:50:35.785Z,14.07
2018-01-11T02:53:04.124Z,12.80
2018-01-11T02:55:31.664Z,13.32
2018-01-11T02:57:59.239Z,12.37
2018-01-11T03:00:28.727Z,10.82
2018-01-11T03:02:56.308Z,12.07
2018-01-11T03:05:23.847Z,11.90
2018-01-11T03:07:51.388Z,10.95
2018-01-11T03:10:18.954Z,11.40
2018-01-11T03:12:46.496Z,11.45
2018-01-11T03:15:14.079Z,11.23
2018-01-11T03:17:41.625Z,10.07
2018-01-11T03:20:09.203Z,11.02
2018-01-11T03:22:36.744Z,10.98
2018-01-11T03:25:04.337Z,11.85
2018-01-11T03:27:31.881Z,9.60
2018-01-11T03:29:59.422Z,11.02
2018-01-11T03:32:26.995Z,10.45
2018-01-11T03:34:54.536Z,11.02
2018-01-11T03:37:22.121Z,11.60
2018-01-11T03:39:49.657Z,11.12
2018-01-11T03:42:17.223Z,11.23
2018-01-11T03:44:44.814Z,10.75
2018-01-11T03:47:12.362Z,11.45
2018-01-11T03:49:39.898Z,10.95
2018-01-11T03:52:07.485Z,10.68
2018-01-11T03:54:35.018Z,11.10
2018-01-11T03:57:02.547Z,9.75
2018-01-11T03:59:30.908Z,11.35
2018-01-11T04:01:59.213Z,10.77
2018-01-11T04:04:27.525Z,10.40
2018-01-11T04:06:55.109Z,12.63
2018-01-11T04:09:22.652Z,11.35
2018-01-11T04:11:50.224Z,11.35
2018-01-11T04:14:17.803Z,11.12
2018-01-11T04:16:45.389Z,10.70
2018-01-11T04:19:13.691Z,11.35
2018-01-11T04:21:41.263Z,10.57
2018-01-11T04:24:08.808Z,10.65
2018-01-11T04:26:36.385Z,11.12
2018-01-11T04:29:03.957Z,9.43
2018-01-11T04:31:31.507Z,10.88
2018-01-11T04:33:59.084Z,10.48
2018-01-11T04:36:26.651Z,10.70
2018-01-11T04:38:54.287Z,10.63
2018-01-11T04:41:21.823Z,9.55
2018-01-11T04:43:49.366Z,10.00
2018-01-11T04:46:17.707Z,11.73
2018-01-11T04:48:45.271Z,10.05
2018-01-11T04:51:12.810Z,9.90
2018-01-11T04:53:40.423Z,9.60
2018-01-11T04:56:08.724Z,9.95
2018-01-11T04:58:36.269Z,10.50
2018-01-11T05:01:03.856Z,9.55
2018-01-11T05:03:31.390Z,10.38
2018-01-11T05:05:58.935Z,9.45
2018-01-11T05:08:27.271Z,8.68
2018-01-11T05:10:54.811Z,11.20
2018-01-11T05:13:22.346Z,9.45
2018-01-11T05:15:49.930Z,9.05
2018-01-11T05:18:17.523Z,10.27
2018-01-11T05:20:45.068Z,10.23
2018-01-11T05:23:12.637Z,9.45
2018-01-11T05:25:40.200Z,9.80
2018-01-11T05:28:07.833Z,9.75
2018-01-11T05:30:35.367Z,9.55
2018-01-11T05:33:02.948Z,10.27
2018-01-11T05:35:30.529Z,10.90
2018-01-11T05:37:58.104Z,11.35
2018-01-11T05:40:25.686Z,9.80
2018-01-11T05:42:53.990Z,10.10
2018-01-11T05:45:21.566Z,10.10
2018-01-11T05:47:49.104Z,10.48
2018-01-11T05:50:16.683Z,10.80
2018-01-11T05:52:44.218Z,10.80
2018-01-11T05:55:12.561Z,11.55
2018-01-11T05:57:40.138Z,11.63
2018-01-11T06:00:08.480Z,10.73
2018-01-11T06:02:36.025Z,10.82
2018-01-11T06:05:03.601Z,9.27
2018-01-11T06:07:31.141Z,10.18
2018-01-11T06:09:58.724Z,11.60
2018-01-11T06:12:26.263Z,10.60
2018-01-11T06:14:53.795Z,11.52
2018-01-11T06:17:22.151Z,12.15
2018-01-11T06:19:50.453Z,11.12
2018-01-11T06:22:17.986Z,11.02
2018-01-11T06:24:45.568Z,11.27
2018-01-11T06:27:13.882Z,11.00
2018-01-11T06:29:41.437Z,11.35
2018-01-11T06:32:09.012Z,11.75
2018-01-11T06:34:36.556Z,10.95
2018-01-11T06:37:04.136Z,10.85
2018-01-11T06:39:31.894Z,11.50
2018-01-11T06:41:59.439Z,10.02
2018-01-11T06:44:27.013Z,11.12
2018-01-11T06:46:54.659Z,10.10
2018-01-11T06:49:22.231Z,10.15
2018-01-11T06:51:49.798Z,9.38
2018-01-11T06:54:17.376Z,9.82
2018-01-11T06:56:44.920Z,10.18
2018-01-11T06:59:12.575Z,9.00
2018-01-11T07:01:40.112Z,9.70
2018-01-11T07:04:07.678Z,10.27
2018-01-11T07:06:35.275Z,8.68
2018-01-11T07:09:02.850Z,10.48
2018-01-11T07:11:31.164Z,12.25
2018-01-11T07:13:58.737Z,15.20
2018-01-11T07:16:26.267Z,19.15
2018-01-11T07:18:54.603Z,12.63
2018-01-11T07:21:22.140Z,10.55
2018-01-11T07:23:49.675Z,9.68
2018-01-11T07:26:17.374Z,10.40
2018-01-11T07:28:44.961Z,10.23
2018-01-11T07:31:12.472Z,9.70
2018-01-11T07:33:40.041Z,8.98
2018-01-11T07:36:07.609Z,10.32
2018-01-11T07:38:35.152Z,10.25
2018-01-11T07:41:02.748Z,9.60
2018-01-11T07:43:30.289Z,10.57
2018-01-11T07:45:57.833Z,10.90
2018-01-11T07:48:25.405Z,10.55
2018-01-11T07:50:52.940Z,11.20
2018-01-11T07:53:20.513Z,10.32
2018-01-11T07:55:48.052Z,10.50
2018-01-11T07:58:15.629Z,9.77
2018-01-11T08:00:43.164Z,10.20
2018-01-11T08:03:10.705Z,10.13
2018-01-11T08:05:39.055Z,10.70
2018-01-11T08:08:06.635Z,11.98
2018-01-11T08:10:34.214Z,11.20
2018-01-11T08:13:01.779Z,11.12
2018-01-11T08:15:29.319Z,11.60
2018-01-11T08:17:57.627Z,13.15
2018-01-11T08:20:25.221Z,12.70
2018-01-11T08:22:52.768Z,12.10
2018-01-11T08:25:20.307Z,13.02
2018-01-11T08:27:47.907Z,13.10
2018-01-11T08:30:15.500Z,12.35
2018-01-11T08:32:43.849Z,12.02
2018-01-11T08:35:11.432Z,12.82
2018-01-11T08:37:39.765Z,12.30
2018-01-11T08:40:07.304Z,11.85
2018-01-11T08:42:34.981Z,11.73
2018-01-11T08:45:02.551Z,11.55
2018-01-11T08:47:30.085Z,12.07
2018-01-11T08:49:57.671Z,12.00
2018-01-11T08:52:25.265Z,11.60
2018-01-11T08:54:52.803Z,13.02
2018-01-11T08:57:20.339Z,12.48
2018-01-11T08:59:48.001Z,12.93
2018-01-11T09:02:15.580Z,12.52
2018-01-11T09:04:43.123Z,11.50
2018-01-11T09:07:10.708Z,13.45
2018-01-11T09:09:38.244Z,13.25
2018-01-11T09:12:05.833Z,11.95
2018-01-11T09:14:33.437Z,12.75
2018-01-11T09:17:00.983Z,13.40
2018-01-11T09:19:29.285Z,13.93
2018-01-11T09:21:56.881Z,12.25
2018-01-11T09:24:24.434Z,13.15
2018-01-11T09:26:51.979Z,15.50
2018-01-11T09:29:19.554Z,16.77
2018-01-11T09:31:47.088Z,14.38
2018-01-11T09:34:14.671Z,15.23
2018-01-11T09:36:42.220Z,15.45
2018-01-11T09:39:09.803Z,15.18
2018-01-11T09:41:37.339Z,14.70
2018-01-11T09:44:04.920Z,15.32
2018-01-11T09:46:32.463Z,15.40
2018-01-11T09:49:00.044Z,16.15
2018-01-11T09:51:27.630Z,16.27
2018-01-11T09:53:55.935Z,15.43
2018-01-11T09:56:23.532Z,15.10
2018-01-11T09:58:51.071Z,15.95
2018-01-11T10:01:18.609Z,14.43
2018-01-11T10:03:46.193Z,14.70
2018-01-11T10:06:13.782Z,15.20
2018-01-11T10:08:41.329Z,16.15
2018-01-11T10:11:08.873Z,17.35
2018-01-11T10:13:36.471Z,14.65
2018-01-11T10:16:04.011Z,13.90
2018-01-11T10:18:31.548Z,15.20
2018-01-11T10:20:59.126Z,15.60
2018-01-11T10:23:26.772Z,15.48
2018-01-11T10:25:54.337Z,15.77
2018-01-11T10:28:21.925Z,15.93
2018-01-11T10:30:49.471Z,16.02
2018-01-11T10:33:17.019Z,14.57
2018-01-11T10:35:44.606Z,14.80
2018-01-11T10:38:12.194Z,14.65
2018-01-11T10:40:40.493Z,17.77
2018-01-11T10:43:08.058Z,15.88
2018-01-11T10:45:35.601Z,16.95
2018-01-11T10:48:03.183Z,14.90
2018-01-11T10:50:30.768Z,17.37
2018-01-11T10:52:58.319Z,17.08
2018-01-11T10:55:25.900Z,16.12
2018-01-11T10:57:53.484Z,18.12
2018-01-11T11:00:21.834Z,16.52
2018-01-11T11:02:49.375Z,18.10
2018-01-11T11:05:16.953Z,17.98
2018-01-11T11:07:44.492Z,16.12
2018-01-11T11:10:12.075Z,17.87
2018-01-11T11:12:39.608Z,16.58
2018-01-11T11:15:07.197Z,15.35
2018-01-11T11:17:34.788Z,16.02
2018-01-11T11:20:03.171Z,16.55
2018-01-11T11:22:31.480Z,16.83
2018-01-11T11:24:59.020Z,16.37
2018-01-11T11:27:26.609Z,16.35
2018-01-11T11:29:54.149Z,17.75
2018-01-11T11:32:21.694Z,18.23
2018-01-11T11:34:49.278Z,16.30
2018-01-11T11:37:16.869Z,17.20
2018-01-11T11:39:44.593Z,18.00
2018-01-11T11:42:12.138Z,17.23
2018-01-11T11:44:39.726Z,16.08
2018-01-11T11:47:07.310Z,18.48
2018-01-11T11:49:34.906Z,20.05
2018-01-11T11:52:02.520Z,18.45
2018-01-11T11:54:30.064Z,17.33
2018-01-11T11:56:57.640Z,17.33
2018-01-11T11:59:25.175Z,17.60
2018-01-11T12:01:52.758Z,18.58
2018-01-11T12:04:20.308Z,19.77
2018-01-11T12:06:47.892Z,20.35
2018-01-11T12:09:15.424Z,20.33
2018-01-11T12:11:43.012Z,21.77
2018-01-11T12:14:10.577Z,20.77
2018-01-11T12:16:38.115Z,20.15
2018-01-11T12:19:05.706Z,19.77
2018-01-11T12:21:34.027Z,22.55
2018-01-11T12:24:01.628Z,20.30
2018-01-11T12:26:29.175Z,20.27
2018-01-11T12:28:56.729Z,20.30
2018-01-11T12:31:24.334Z,21.75
2018-01-11T12:33:52.639Z,23.75
2018-01-11T12:36:20.179Z,22.80
2018-01-11T12:38:48.532Z,22.30
2018-01-11T12:41:16.077Z,21.65
2018-01-11T12:43:43.666Z,21.98
2018-01-11T12:46:11.968Z,22.95
2018-01-11T12:48:39.561Z,22.90
2018-01-11T12:51:07.105Z,21.08
2018-01-11T12:53:34.692Z,18.58
2018-01-11T12:56:02.280Z,19.62
2018-01-11T12:58:30.591Z,18.05
2018-01-11T13:00:58.175Z,19.60
2018-01-11T13:03:25.720Z,21.20
2018-01-11T13:05:53.316Z,22.00
2018-01-11T13:08:20.857Z,21.52
2018-01-11T13:10:48.396Z,22.75
2018-01-11T13:13:15.953Z,21.95
2018-01-11T13:15:43.493Z,22.75
2018-01-11T13:18:11.849Z,22.02
2018-01-11T13:20:40.210Z,21.50
2018-01-11T13:23:07.747Z,21.50
2018-01-11T13:25:35.335Z,22.10
2018-01-11T13:28:02.870Z,23.67
2018-01-11T13:30:30.449Z,24.50
2018-01-11T13:32:58.036Z,24.23
2018-01-11T13:35:26.383Z,23.45
2018-01-11T13:37:53.924Z,24.40
2018-01-11T13:40:21.582Z,23.25
2018-01-11T13:42:49.172Z,24.08
2018-01-11T13:45:16.710Z,25.98
2018-01-11T13:47:45.937Z,24.45
2018-01-11T13:50:13.480Z,26.02
2018-01-11T13:52:41.024Z,25.00
2018-01-11T13:55:08.612Z,25.10
2018-01-11T13:57:36.198Z,24.40
2018-01-11T14:00:04.557Z,23.67
2018-01-11T14:02:32.152Z,25.35
2018-01-11T14:04:59.690Z,26.00
2018-01-11T14:07:27.995Z,24.30
2018-01-11T14:09:55.580Z,24.10
2018-01-11T14:12:23.136Z,25.95
2018-01-11T14:14:50.723Z,25.12
2018-01-11T14:17:18.258Z,26.05
2018-01-11T14:19:45.813Z,26.55
2018-01-11T14:22:13.404Z,26.05
2018-01-11T14:24:40.954Z,29.00
2018-01-11T14:27:08.541Z,26.70
2018-01-11T14:29:36.418Z,23.00
2018-01-11T14:32:04.767Z,23.40
2018-01-11T14:34:32.306Z,24.95
2018-01-11T14:36:59.891Z,25.40
2018-01-11T14:39:27.432Z,24.35
2018-01-11T14:41:54.996Z,26.08
2018-01-11T14:44:22.577Z,23.90
2018-01-11T14:46:50.128Z,24.10
2018-01-11T14:49:17.717Z,22.73
2018-01-11T14:51:46.035Z,23.25
2018-01-11T14:54:13.635Z,23.05
2018-01-11T14:56:41.175Z,23.62
2018-01-11T14:59:08.725Z,22.10
2018-01-11T15:01:36.313Z,22.62
2018-01-11T15:04:03.856Z,22.33
2018-01-11T15:06:31.443Z,23.38
2018-01-11T15:08:59.771Z,20.37
2018-01-11T15:11:27.352Z,21.35
2018-01-11T15:13:54.928Z,21.27
2018-01-11T15:16:22.464Z,18.23
2018-01-11T15:18:50.036Z,19.80
2018-01-11T15:21:17.589Z,20.80
2018-01-11T15:23:45.203Z,21.27
2018-01-11T15:26:13.514Z,20.37
2018-01-11T15:28:41.102Z,20.20
2018-01-11T15:31:08.900Z,22.20
2018-01-11T15:33:37.316Z,19.60
2018-01-11T15:36:04.883Z,21.17
2018-01-11T15:38:32.537Z,20.60
2018-01-11T15:41:00.115Z,20.27
2018-01-11T15:43:27.702Z,20.67
2018-01-11T15:45:55.246Z,21.10
2018-01-11T15:48:22.836Z,18.80
2018-01-11T15:50:51.148Z,17.17
2018-01-11T15:53:18.735Z,16.13
2018-01-11T15:55:46.279Z,16.63
2018-01-11T15:58:14.031Z,15.07
2018-01-11T16:00:41.576Z,12.10
2018-01-11T16:03:09.158Z,13.17
2018-01-11T16:05:36.750Z,13.97
2018-01-11T16:08:04.335Z,13.70
2018-01-11T16:10:32.646Z,13.37
2018-01-11T16:13:00.244Z,13.90
2018-01-11T16:15:27.783Z,13.17
2018-01-11T16:17:55.323Z,12.43
2018-01-11T16:20:22.908Z,12.87
2018-01-11T16:22:50.454Z,13.10
2018-01-11T16:25:18.083Z,13.60
2018-01-11T16:27:45.595Z,13.00
2018-01-11T16:30:13.181Z,12.60
2018-01-11T16:32:40.726Z,12.40
2018-01-11T16:35:09.082Z,12.90
2018-01-11T16:37:36.633Z,16.07
2018-01-11T16:40:04.211Z,14.40
2018-01-11T16:42:31.755Z,13.67
2018-01-11T16:44:59.330Z,13.63
2018-01-11T16:47:26.922Z,13.40
2018-01-11T16:49:55.229Z,13.30
2018-01-11T16:52:22.775Z,13.97
2018-01-11T16:54:51.133Z,15.03
2018-01-11T16:57:18.733Z,14.40
2018-01-11T16:59:46.277Z,16.60
2018-01-11T17:02:14.625Z,17.47
2018-01-11T17:04:42.177Z,20.20
2018-01-11T17:07:09.728Z,17.17
2018-01-11T17:09:37.303Z,16.27
2018-01-11T17:12:04.855Z,15.67
2018-01-11T17:14:32.436Z,15.80
2018-01-11T17:16:59.978Z,16.57
2018-01-11T17:19:29.072Z,16.40
2018-01-11T17:21:56.624Z,15.10
2018-01-11T17:24:24.215Z,14.20
2018-01-11T17:26:51.747Z,14.50
2018-01-11T17:29:19.325Z,16.03
2018-01-11T17:31:46.859Z,13.03
2018-01-11T17:34:14.439Z,15.10
2018-01-11T17:36:41.978Z,16.87
2018-01-11T17:39:09.570Z,20.50
2018-01-11T17:41:37.116Z,19.40
2018-01-11T17:44:04.742Z,18.83
2018-01-11T17:46:32.280Z,20.00
2018-01-11T17:48:59.855Z,19.63
2018-01-11T17:51:27.427Z,21.83
2018-01-11T17:53:54.963Z,22.23
2018-01-11T17:56:22.536Z,23.00
2018-01-11T17:58:50.068Z,22.07
2018-01-11T18:01:18.404Z,22.97
2018-01-11T18:03:45.938Z,22.70
2018-01-11T18:06:13.519Z,22.67
2018-01-11T18:08:41.159Z,26.20
2018-01-11T18:11:08.741Z,23.20
2018-01-11T18:13:36.281Z,26.93
2018-01-11T18:16:03.857Z,22.70
2018-01-11T18:18:31.394Z,24.50
2018-01-11T18:20:58.981Z,24.30
2018-01-11T18:23:26.532Z,24.10
2018-01-11T18:25:54.114Z,26.50
2018-01-11T18:28:21.657Z,26.27
2018-01-11T18:30:49.236Z,26.50
2018-01-11T18:33:16.825Z,27.37
2018-01-11T18:35:44.390Z,24.63
2018-01-11T18:38:11.932Z,24.97
2018-01-11T18:40:40.270Z,26.73
2018-01-11T18:43:07.808Z,24.37
2018-01-11T18:45:35.391Z,24.40
2018-01-11T18:48:02.927Z,24.70
2018-01-11T18:50:30.503Z,26.37
2018-01-11T18:52:58.031Z,24.80
2018-01-11T18:55:25.615Z,24.70
2018-01-11T18:57:53.142Z,29.00
2018-01-11T19:00:21.483Z,26.23
2018-01-11T19:02:49.019Z,27.27
2018-01-11T19:05:16.595Z,28.90
2018-01-11T19:07:44.127Z,26.77
2018-01-11T19:10:11.710Z,26.50
2018-01-11T19:12:39.246Z,26.67
2018-01-11T19:15:06.829Z,27.33
2018-01-11T19:17:34.366Z,26.77
2018-01-11T19:20:01.899Z,28.37
2018-01-11T19:22:30.253Z,25.60
2018-01-11T19:24:58.565Z,28.00
2018-01-11T19:27:26.164Z,27.25
2018-01-11T19:29:53.704Z,25.83
2018-01-11T19:32:21.307Z,26.67
2018-01-11T19:34:48.888Z,27.50
2018-01-11T19:37:17.196Z,23.93
2018-01-11T19:39:44.787Z,26.42
2018-01-11T19:42:12.315Z,26.00
2018-01-11T19:44:39.896Z,24.90
2018-01-11T19:47:07.431Z,26.37
2018-01-11T19:49:35.010Z,26.77
2018-01-11T19:52:02.559Z,25.10
2018-01-11T19:54:30.222Z,26.57
2018-01-11T19:56:57.757Z,26.20
2018-01-11T19:59:25.339Z,27.37
2018-01-11T20:01:52.912Z,24.90
2018-01-11T20:04:20.497Z,26.47
2018-01-11T20:06:48.042Z,25.95
2018-01-11T20:09:15.623Z,27.27
2018-01-11T20:11:43.166Z,24.50
2018-01-11T20:14:10.745Z,24.73
2018-01-11T20:16:38.334Z,24.07
2018-01-11T20:19:06.197Z,25.90
2018-01-11T20:21:34.506Z,26.30
2018-01-11T20:24:02.044Z,26.63
2018-01-11T20:26:29.620Z,25.60
2018-01-11T20:28:57.163Z,24.87
2018-01-11T20:31:24.745Z,26.95
2018-01-11T20:33:52.413Z,26.83
2018-01-11T20:36:20.041Z,27.23
2018-01-11T20:38:47.636Z,23.63
2018-01-11T20:41:15.212Z,27.00
2018-01-11T20:43:42.757Z,26.17
2018-01-11T20:46:10.333Z,22.53
2018-01-11T20:48:37.870Z,22.70
2018-01-11T20:51:05.530Z,24.20
2018-01-11T20:53:33.110Z,22.83
2018-01-11T20:56:00.698Z,22.50
2018-01-11T20:58:29.053Z,23.07
2018-01-11T21:01:03.303Z,24.50
2018-01-11T21:03:31.607Z,23.40
2018-01-11T21:05:59.285Z,24.50
2018-01-11T21:08:26.869Z,22.83
2018-01-11T21:10:54.454Z,24.53
2018-01-11T21:13:22.036Z,22.73
2018-01-11T21:15:50.376Z,25.17
2018-01-11T21:18:17.913Z,23.10
2018-01-11T21:20:45.482Z,23.37
2018-01-11T21:23:13.034Z,25.00
2018-01-11T21:25:40.658Z,24.00
2018-01-11T21:28:08.259Z,25.23
2018-01-11T21:30:35.839Z,24.87
2018-01-11T21:33:03.387Z,23.57
2018-01-11T21:35:30.969Z,22.87
2018-01-11T21:37:58.516Z,18.63
2018-01-11T21:40:26.141Z,20.20
2018-01-11T21:42:53.695Z,21.35
2018-01-11T21:45:21.320Z,20.90
2018-01-11T21:47:50.376Z,19.23
2018-01-11T21:50:18.009Z,19.85
2018-01-11T21:52:45.551Z,18.45
2018-01-11T21:55:13.891Z,18.10
2018-01-11T21:57:41.436Z,19.70
2018-01-11T22:00:09.025Z,19.37
2018-01-11T22:02:36.571Z,18.05
2018-01-11T22:05:04.152Z,17.03
2018-01-11T22:07:32.499Z,17.23
2018-01-11T22:10:00.089Z,18.33
2018-01-11T22:12:28.452Z,16.70
2018-01-11T22:14:56.053Z,18.23
2018-01-11T22:17:23.589Z,16.27
2018-01-11T22:19:51.933Z,15.60
2018-01-11T22:22:19.479Z,15.37
2018-01-11T22:24:47.063Z,14.68
2018-01-11T22:27:14.608Z,14.75
2018-01-11T22:29:42.192Z,15.52
2018-01-11T22:32:09.730Z,13.73
2018-01-11T22:34:37.312Z,14.10
2018-01-11T22:37:04.854Z,13.55
2018-01-11T22:39:32.443Z,13.50
2018-01-11T22:41:59.980Z,14.83
2018-01-11T22:44:27.562Z,13.00
2018-01-11T22:46:55.882Z,13.20
2018-01-11T22:49:23.471Z,14.27
2018-01-11T22:51:51.013Z,15.02
2018-01-11T22:54:18.599Z,12.70
2018-01-11T22:56:46.139Z,13.52
2018-01-11T22:59:13.720Z,15.93
2018-01-11T23:01:42.772Z,14.13
2018-01-11T23:04:10.352Z,15.77
2018-01-11T23:06:37.903Z,12.23
2018-01-11T23:09:05.488Z,13.00
2018-01-11T23:11:38.693Z,13.65
2018-01-11T23:14:06.279Z,12.98
2018-01-11T23:16:34.588Z,12.15
2018-01-11T23:19:02.184Z,12.75
2018-01-11T23:21:29.735Z,13.57
2018-01-11T23:23:57.315Z,12.52
2018-01-11T23:26:24.857Z,14.60
2018-01-11T23:28:52.443Z,12.32
2018-01-11T23:31:20.752Z,13.98
2018-01-11T23:33:48.338Z,14.65
2018-01-11T23:36:15.891Z,13.60
2018-01-11T23:38:43.481Z,12.30
2018-01-11T23:41:11.023Z,14.70
2018-01-11T23:43:38.604Z,13.32
2018-01-11T23:46:06.143Z,15.00
2018-01-11T23:48:33.727Z,13.20
2018-01-11T23:51:01.267Z,12.98
2018-01-11T23:53:28.848Z,12.85
2018-01-11T23:55:56.405Z,14.73
2018-01-11T23:58:23.988Z,13.75
